createdAt,value
2022-12-17T00:00:32.314Z,-5.49
2022-12-17T00:01:32.236Z,-5.49
2022-12-17T00:02:32.419Z,-5.56
2022-12-17T00:03:32.453Z,-5.61
2022-12-17T00:04:32.197Z,-5.58
2022-12-17T00:05:32.185Z,-5.58
2022-12-17T00:06:32.170Z,-5.60
2022-12-17T00:07:32.164Z,-5.61
2022-12-17T00:08:32.163Z,-5.56
2022-12-17T00:09:32.149Z,-5.51
2022-12-17T00:10:32.113Z,-5.42
2022-12-17T00:11:32.120Z,-5.43
2022-12-17T00:12:32.088Z,-5.57
2022-12-17T00:13:32.081Z,-5.67
2022-12-17T00:14:32.060Z,-5.56
2022-12-17T00:15:32.045Z,-5.58
2022-12-17T00:16:32.122Z,-5.57
2022-12-17T00:17:32.021Z,-5.57
2022-12-17T00:18:32.014Z,-5.60
2022-12-17T00:19:31.995Z,-5.71
2022-12-17T00:20:31.982Z,-5.76
2022-12-17T00:21:31.968Z,-5.75
2022-12-17T00:22:31.958Z,-5.81
2022-12-17T00:23:31.946Z,-5.74
2022-12-17T00:24:31.964Z,-5.84
2022-12-17T00:25:31.920Z,-5.78
2022-12-17T00:26:31.911Z,-5.82
2022-12-17T00:27:31.891Z,-5.90
2022-12-17T00:28:31.882Z,-5.93
2022-12-17T00:29:31.879Z,-6.00
2022-12-17T00:30:31.860Z,-6.02
2022-12-17T00:31:31.939Z,-6.08
2022-12-17T00:32:31.835Z,-6.10
2022-12-17T00:33:32.015Z,-6.11
2022-12-17T00:34:31.814Z,-6.13
2022-12-17T00:35:31.790Z,-6.03
2022-12-17T00:36:31.797Z,-6.00
2022-12-17T00:37:31.780Z,-6.03
2022-12-17T00:38:31.753Z,-6.05
2022-12-17T00:39:31.742Z,-6.10
2022-12-17T00:40:31.745Z,-6.14
2022-12-17T00:41:31.716Z,-6.08
2022-12-17T00:42:31.703Z,-6.03
2022-12-17T00:43:31.691Z,-6.03
2022-12-17T00:44:31.686Z,-6.15
2022-12-17T00:45:31.669Z,-6.17
2022-12-17T00:46:31.727Z,-6.11
2022-12-17T00:47:31.631Z,-6.15
2022-12-17T00:48:31.624Z,-6.13
2022-12-17T00:49:31.610Z,-6.05
2022-12-17T00:50:31.591Z,-6.10
2022-12-17T00:51:31.596Z,-6.07
2022-12-17T00:52:31.570Z,-5.95
2022-12-17T00:53:31.550Z,-6.10
2022-12-17T00:54:31.542Z,-6.14
2022-12-17T00:55:31.526Z,-6.11
2022-12-17T00:56:31.543Z,-6.14
2022-12-17T00:57:31.510Z,-6.20
2022-12-17T00:58:31.496Z,-6.21
2022-12-17T00:59:31.476Z,-6.26
2022-12-17T01:00:31.572Z,-6.28
2022-12-17T01:01:31.599Z,-6.34
2022-12-17T01:02:31.523Z,-6.34
2022-12-17T01:03:31.428Z,-6.35
2022-12-17T01:04:31.412Z,-6.44
2022-12-17T01:05:31.399Z,-6.41
2022-12-17T01:06:31.383Z,-6.49
2022-12-17T01:07:31.378Z,-6.50
2022-12-17T01:08:31.366Z,-6.50
2022-12-17T01:09:31.345Z,-6.46
2022-12-17T01:10:31.343Z,-6.47
2022-12-17T01:11:31.319Z,-6.44
2022-12-17T01:12:31.333Z,-6.49
2022-12-17T01:13:31.294Z,-6.56
2022-12-17T01:14:31.285Z,-6.68
2022-12-17T01:15:31.275Z,-6.71
2022-12-17T01:16:31.309Z,-6.69
2022-12-17T01:17:31.239Z,-6.71
2022-12-17T01:18:31.228Z,-6.71
2022-12-17T01:19:31.215Z,-6.72
2022-12-17T01:20:31.211Z,-6.81
2022-12-17T01:21:31.194Z,-6.83
2022-12-17T01:22:31.176Z,-6.78
2022-12-17T01:23:31.171Z,-6.83
2022-12-17T01:24:31.150Z,-6.86
2022-12-17T01:25:31.145Z,-6.87
2022-12-17T01:26:31.123Z,-6.94
2022-12-17T01:27:31.118Z,-6.84
2022-12-17T01:28:31.126Z,-6.81
2022-12-17T01:29:31.095Z,-6.71
2022-12-17T01:30:31.078Z,-6.63
2022-12-17T01:31:34.890Z,-6.65
2022-12-17T01:32:31.045Z,-6.69
2022-12-17T01:33:31.031Z,-6.74
2022-12-17T01:34:31.034Z,-6.76
2022-12-17T01:35:31.007Z,-6.81
2022-12-17T01:36:31.002Z,-6.81
2022-12-17T01:37:30.994Z,-6.84
2022-12-17T01:38:30.966Z,-6.79
2022-12-17T01:39:30.962Z,-6.90
2022-12-17T01:40:30.950Z,-6.87
2022-12-17T01:41:30.938Z,-6.90
2022-12-17T01:42:30.918Z,-6.92
2022-12-17T01:43:30.906Z,-6.94
2022-12-17T01:44:30.989Z,-6.92
2022-12-17T01:45:31.017Z,-6.92
2022-12-17T01:46:30.873Z,-6.94
2022-12-17T01:47:30.862Z,-6.94
2022-12-17T01:48:30.876Z,-7.00
2022-12-17T01:49:30.824Z,-6.90
2022-12-17T01:50:30.811Z,-6.83
2022-12-17T01:51:30.808Z,-6.72
2022-12-17T01:52:30.784Z,-6.79
2022-12-17T01:53:30.779Z,-6.78
2022-12-17T01:54:30.778Z,-6.84
2022-12-17T01:55:30.755Z,-6.90
2022-12-17T01:56:30.736Z,-6.93
2022-12-17T01:57:30.721Z,-6.96
2022-12-17T01:58:30.716Z,-6.94
2022-12-17T01:59:30.695Z,-6.99
2022-12-17T02:00:30.715Z,-6.93
2022-12-17T02:01:30.912Z,-6.99
2022-12-17T02:02:30.865Z,-7.04
2022-12-17T02:03:30.670Z,-7.15
2022-12-17T02:04:30.638Z,-7.21
2022-12-17T02:05:30.627Z,-7.22
2022-12-17T02:06:30.609Z,-7.18
2022-12-17T02:07:30.640Z,-7.25
2022-12-17T02:08:30.582Z,-7.26
2022-12-17T02:09:30.572Z,-7.36
2022-12-17T02:10:30.560Z,-7.29
2022-12-17T02:11:30.550Z,-7.26
2022-12-17T02:12:30.526Z,-7.23
2022-12-17T02:13:30.513Z,-7.13
2022-12-17T02:14:30.501Z,-7.03
2022-12-17T02:15:30.488Z,-7.05
2022-12-17T02:16:30.593Z,-6.99
2022-12-17T02:17:30.462Z,-6.87
2022-12-17T02:18:30.461Z,-6.94
2022-12-17T02:19:30.446Z,-6.89
2022-12-17T02:20:30.423Z,-6.93
2022-12-17T02:21:30.419Z,-6.94
2022-12-17T02:22:30.416Z,-6.81
2022-12-17T02:23:30.385Z,-6.84
2022-12-17T02:24:30.379Z,-6.99
2022-12-17T02:25:30.365Z,-7.08
2022-12-17T02:26:30.353Z,-7.07
2022-12-17T02:27:30.343Z,-7.13
2022-12-17T02:28:30.325Z,-7.14
2022-12-17T02:29:30.316Z,-7.14
2022-12-17T02:30:30.304Z,-7.11
2022-12-17T02:31:30.310Z,-7.15
2022-12-17T02:32:30.307Z,-7.14
2022-12-17T02:33:30.255Z,-7.10
2022-12-17T02:34:30.243Z,-7.05
2022-12-17T02:35:30.238Z,-7.04
2022-12-17T02:36:30.217Z,-6.97
2022-12-17T02:37:30.210Z,-7.00
2022-12-17T02:38:30.202Z,-6.94
2022-12-17T02:39:30.193Z,-6.97
2022-12-17T02:40:30.178Z,-6.99
2022-12-17T02:41:30.153Z,-7.07
2022-12-17T02:42:30.141Z,-7.03
2022-12-17T02:43:30.125Z,-7.13
2022-12-17T02:44:30.134Z,-7.08
2022-12-17T02:45:30.170Z,-7.05
2022-12-17T02:46:30.096Z,-7.08
2022-12-17T02:47:30.083Z,-7.17
2022-12-17T02:48:30.093Z,-7.29
2022-12-17T02:49:30.057Z,-7.29
2022-12-17T02:50:30.040Z,-7.38
2022-12-17T02:51:30.023Z,-7.42
2022-12-17T02:52:34.757Z,-7.44
2022-12-17T02:53:29.997Z,-7.47
2022-12-17T02:54:29.994Z,-7.49
2022-12-17T02:55:29.975Z,-7.60
2022-12-17T02:56:29.966Z,-7.63
2022-12-17T02:57:29.954Z,-7.65
2022-12-17T02:58:29.949Z,-7.65
2022-12-17T02:59:29.922Z,-7.60
2022-12-17T03:00:29.922Z,-7.52
2022-12-17T03:01:30.045Z,-7.47
2022-12-17T03:02:30.124Z,-7.50
2022-12-17T03:03:29.907Z,-7.35
2022-12-17T03:04:29.891Z,-7.38
2022-12-17T03:05:44.947Z,-7.31
2022-12-17T03:06:30.870Z,-7.21
2022-12-17T03:07:29.832Z,-7.26
2022-12-17T03:08:29.802Z,-7.29
2022-12-17T03:09:29.797Z,-7.32
2022-12-17T03:10:29.784Z,-7.28
2022-12-17T03:11:29.776Z,-7.28
2022-12-17T03:12:29.761Z,-7.23
2022-12-17T03:13:29.747Z,-7.18
2022-12-17T03:14:29.726Z,-7.21
2022-12-17T03:15:29.728Z,-7.13
2022-12-17T03:16:35.682Z,-7.08
2022-12-17T03:17:30.730Z,-7.03
2022-12-17T03:18:29.683Z,-7.07
2022-12-17T03:19:29.691Z,-7.10
2022-12-17T03:20:29.681Z,-7.17
2022-12-17T03:21:29.644Z,-7.23
2022-12-17T03:22:29.623Z,-7.15
2022-12-17T03:23:29.620Z,-7.17
2022-12-17T03:24:29.598Z,-7.25
2022-12-17T03:25:29.611Z,-7.28
2022-12-17T03:26:29.573Z,-7.29
2022-12-17T03:27:29.570Z,-7.36
2022-12-17T03:28:29.553Z,-7.47
2022-12-17T03:29:29.542Z,-7.58
2022-12-17T03:30:34.505Z,-7.65
2022-12-17T03:31:30.609Z,-7.70
2022-12-17T03:32:29.504Z,-7.68
2022-12-17T03:33:29.483Z,-7.70
2022-12-17T03:34:29.478Z,-7.70
2022-12-17T03:35:29.456Z,-7.63
2022-12-17T03:36:29.465Z,-7.65
2022-12-17T03:37:29.438Z,-7.71
2022-12-17T03:38:29.426Z,-7.72
2022-12-17T03:39:29.415Z,-7.81
2022-12-17T03:40:29.395Z,-7.83
2022-12-17T03:41:29.376Z,-7.82
2022-12-17T03:42:29.373Z,-7.83
2022-12-17T03:43:29.360Z,-7.92
2022-12-17T03:44:29.336Z,-7.93
2022-12-17T03:45:29.327Z,-8.08
2022-12-17T03:46:29.396Z,-8.07
2022-12-17T03:47:29.306Z,-7.99
2022-12-17T03:48:29.288Z,-8.10
2022-12-17T03:49:29.291Z,-8.08
2022-12-17T03:50:29.259Z,-8.16
2022-12-17T03:51:29.251Z,-8.16
2022-12-17T03:52:29.255Z,-8.15
2022-12-17T03:53:29.229Z,-8.13
2022-12-17T03:54:29.218Z,-7.99
2022-12-17T03:55:29.203Z,-7.89
2022-12-17T03:56:29.188Z,-7.85
2022-12-17T03:57:29.176Z,-7.81
2022-12-17T03:58:29.154Z,-7.85
2022-12-17T03:59:29.148Z,-7.89
2022-12-17T04:00:29.127Z,-7.89
2022-12-17T04:01:29.206Z,-7.96
2022-12-17T04:02:29.377Z,-8.03
2022-12-17T04:03:29.219Z,-8.03
2022-12-17T04:04:29.083Z,-8.07
2022-12-17T04:05:29.071Z,-8.10
2022-12-17T04:06:29.051Z,-8.16
2022-12-17T04:07:29.045Z,-8.19
2022-12-17T04:08:29.058Z,-8.22
2022-12-17T04:09:29.016Z,-8.31
2022-12-17T04:10:29.008Z,-8.28
2022-12-17T04:11:28.987Z,-8.26
2022-12-17T04:12:28.975Z,-8.26
2022-12-17T04:13:28.960Z,-8.39
2022-12-17T04:14:28.956Z,-8.36
2022-12-17T04:15:29.079Z,-8.31
2022-12-17T04:16:28.935Z,-8.39
2022-12-17T04:17:28.915Z,-8.46
2022-12-17T04:18:28.894Z,-8.40
2022-12-17T04:19:28.886Z,-8.44
2022-12-17T04:20:28.870Z,-8.47
2022-12-17T04:21:28.863Z,-8.47
2022-12-17T04:22:28.843Z,-8.49
2022-12-17T04:23:28.826Z,-8.43
2022-12-17T04:24:28.851Z,-8.54
2022-12-17T04:25:28.814Z,-8.54
2022-12-17T04:26:28.803Z,-8.57
2022-12-17T04:27:28.779Z,-8.61
2022-12-17T04:28:28.762Z,-8.60
2022-12-17T04:29:28.748Z,-8.58
2022-12-17T04:30:28.744Z,-8.58
2022-12-17T04:31:28.850Z,-8.58
2022-12-17T04:32:33.651Z,-8.55
2022-12-17T04:33:29.738Z,-8.62
2022-12-17T04:34:28.691Z,-8.55
2022-12-17T04:35:28.671Z,-8.55
2022-12-17T04:36:28.659Z,-8.46
2022-12-17T04:37:28.652Z,-8.37
2022-12-17T04:38:28.633Z,-8.42
2022-12-17T04:39:28.618Z,-8.44
2022-12-17T04:40:28.635Z,-8.50
2022-12-17T04:41:28.590Z,-8.49
2022-12-17T04:42:28.584Z,-8.55
2022-12-17T04:43:28.571Z,-8.60
2022-12-17T04:44:28.559Z,-8.61
2022-12-17T04:45:28.535Z,-8.65
2022-12-17T04:46:28.627Z,-8.62
2022-12-17T04:47:28.521Z,-8.58
2022-12-17T04:48:28.506Z,-8.60
2022-12-17T04:49:28.486Z,-8.55
2022-12-17T04:50:28.470Z,-8.60
2022-12-17T04:51:28.465Z,-8.64
2022-12-17T04:52:28.456Z,-8.55
2022-12-17T04:53:28.430Z,-8.61
2022-12-17T04:54:28.426Z,-8.60
2022-12-17T04:55:28.416Z,-8.68
2022-12-17T04:56:28.427Z,-8.68
2022-12-17T04:57:28.389Z,-8.60
2022-12-17T04:58:28.366Z,-8.46
2022-12-17T04:59:28.360Z,-8.29
2022-12-17T05:00:28.347Z,-8.22
2022-12-17T05:01:28.489Z,-8.16
2022-12-17T05:02:28.398Z,-8.08
2022-12-17T05:03:28.418Z,-8.10
2022-12-17T05:04:28.288Z,-8.11
2022-12-17T05:05:28.276Z,-8.16
2022-12-17T05:06:28.261Z,-8.21
2022-12-17T05:07:28.248Z,-8.15
2022-12-17T05:08:28.252Z,-8.18
2022-12-17T05:09:28.228Z,-8.23
2022-12-17T05:10:28.219Z,-8.23
2022-12-17T05:11:28.193Z,-8.40
2022-12-17T05:12:28.209Z,-8.47
2022-12-17T05:13:28.171Z,-8.52
2022-12-17T05:14:28.157Z,-8.61
2022-12-17T05:15:28.148Z,-8.68
2022-12-17T05:16:28.193Z,-8.65
2022-12-17T05:17:28.120Z,-8.75
2022-12-17T05:18:28.108Z,-8.75
2022-12-17T05:19:28.088Z,-8.81
2022-12-17T05:20:28.077Z,-8.83
2022-12-17T05:21:31.945Z,-8.92
2022-12-17T05:22:28.058Z,-8.85
2022-12-17T05:23:28.042Z,-8.86
2022-12-17T05:24:28.032Z,-8.90
2022-12-17T05:25:28.010Z,-8.88
2022-12-17T05:26:27.994Z,-8.93
2022-12-17T05:27:27.985Z,-8.88
2022-12-17T05:28:28.001Z,-8.75
2022-12-17T05:29:27.956Z,-8.64
2022-12-17T05:30:27.950Z,-8.50
2022-12-17T05:31:27.984Z,-8.50
2022-12-17T05:32:27.925Z,-8.52
2022-12-17T05:33:27.900Z,-8.47
2022-12-17T05:34:27.914Z,-8.49
2022-12-17T05:35:27.879Z,-8.47
2022-12-17T05:36:27.878Z,-8.55
2022-12-17T05:37:27.859Z,-8.50
2022-12-17T05:38:27.838Z,-8.46
2022-12-17T05:39:27.831Z,-8.37
2022-12-17T05:40:27.818Z,-8.43
2022-12-17T05:41:27.804Z,-8.39
2022-12-17T05:42:27.796Z,-8.36
2022-12-17T05:43:27.774Z,-8.29
2022-12-17T05:44:27.789Z,-8.34
2022-12-17T05:45:27.755Z,-8.32
2022-12-17T05:46:27.762Z,-8.37
2022-12-17T05:47:27.725Z,-8.34
2022-12-17T05:48:27.706Z,-8.42
2022-12-17T05:49:27.696Z,-8.42
2022-12-17T05:50:27.680Z,-8.47
2022-12-17T05:51:27.676Z,-8.57
2022-12-17T05:52:27.651Z,-8.67
2022-12-17T05:53:27.644Z,-8.79
2022-12-17T05:54:27.634Z,-8.83
2022-12-17T05:55:27.620Z,-8.76
2022-12-17T05:56:27.606Z,-8.70
2022-12-17T05:57:27.592Z,-8.73
2022-12-17T05:58:27.573Z,-8.82
2022-12-17T05:59:27.566Z,-8.83
2022-12-17T06:00:27.575Z,-8.88
2022-12-17T06:01:27.663Z,-8.86
2022-12-17T06:02:27.568Z,-8.88
2022-12-17T06:03:27.685Z,-8.93
2022-12-17T06:04:27.500Z,-8.96
2022-12-17T06:05:27.478Z,-9.03
2022-12-17T06:06:27.482Z,-9.06
2022-12-17T06:07:27.454Z,-9.10
2022-12-17T06:08:27.439Z,-9.10
2022-12-17T06:09:27.442Z,-9.11
2022-12-17T06:10:27.421Z,-9.14
2022-12-17T06:11:27.400Z,-9.21
2022-12-17T06:12:27.394Z,-9.25
2022-12-17T06:13:27.372Z,-9.24
2022-12-17T06:14:27.376Z,-9.36
2022-12-17T06:15:27.345Z,-9.36
2022-12-17T06:16:27.478Z,-9.38
2022-12-17T06:17:27.318Z,-9.36
2022-12-17T06:18:27.307Z,-9.43
2022-12-17T06:19:27.295Z,-9.38
2022-12-17T06:20:27.297Z,-9.43
2022-12-17T06:21:27.269Z,-9.33
2022-12-17T06:22:27.256Z,-9.32
2022-12-17T06:23:27.250Z,-9.21
2022-12-17T06:24:27.227Z,-9.22
2022-12-17T06:25:27.222Z,-9.14
2022-12-17T06:26:27.208Z,-9.12
2022-12-17T06:27:27.192Z,-9.06
2022-12-17T06:28:27.180Z,-8.99
2022-12-17T06:29:27.170Z,-9.02
2022-12-17T06:30:27.147Z,-8.99
2022-12-17T06:31:27.226Z,-9.03
2022-12-17T06:32:27.158Z,-9.07
2022-12-17T06:33:27.116Z,-9.03
2022-12-17T06:34:27.110Z,-9.00
2022-12-17T06:35:27.088Z,-9.03
2022-12-17T06:36:27.069Z,-9.10
2022-12-17T06:37:27.073Z,-9.14
2022-12-17T06:38:27.044Z,-9.06
2022-12-17T06:39:27.037Z,-9.06
2022-12-17T06:40:27.028Z,-8.97
2022-12-17T06:41:27.006Z,-8.90
2022-12-17T06:42:27.001Z,-8.81
2022-12-17T06:43:26.984Z,-8.85
2022-12-17T06:44:26.972Z,-8.73
2022-12-17T06:45:26.959Z,-8.73
2022-12-17T06:46:27.033Z,-8.79
2022-12-17T06:47:26.923Z,-8.88
2022-12-17T06:48:26.931Z,-8.97
2022-12-17T06:49:26.897Z,-9.10
2022-12-17T06:50:26.891Z,-9.15
2022-12-17T06:51:26.888Z,-9.20
2022-12-17T06:52:26.857Z,-9.24
2022-12-17T06:53:26.850Z,-9.32
2022-12-17T06:54:26.840Z,-9.17
2022-12-17T06:55:26.817Z,-9.20
2022-12-17T06:56:26.813Z,-9.07
2022-12-17T06:57:26.797Z,-9.07
2022-12-17T06:58:26.796Z,-9.04
2022-12-17T06:59:26.783Z,-9.06
2022-12-17T07:00:26.753Z,-9.00
2022-12-17T07:01:26.937Z,-8.99
2022-12-17T07:02:26.943Z,-8.92
2022-12-17T07:03:26.821Z,-8.82
2022-12-17T07:04:26.729Z,-8.82
2022-12-17T07:05:26.695Z,-8.86
2022-12-17T07:06:26.683Z,-8.94
2022-12-17T07:07:26.671Z,-9.00
2022-12-17T07:08:26.651Z,-9.07
2022-12-17T07:09:26.645Z,-9.17
2022-12-17T07:10:26.632Z,-9.24
2022-12-17T07:11:26.693Z,-9.21
2022-12-17T07:12:26.605Z,-9.33
2022-12-17T07:13:26.588Z,-9.32
2022-12-17T07:14:26.575Z,-9.31
2022-12-17T07:15:26.562Z,-9.28
2022-12-17T07:16:26.628Z,-9.17
2022-12-17T07:17:26.534Z,-9.18
2022-12-17T07:18:26.521Z,-9.14
2022-12-17T07:19:27.657Z,-9.04
2022-12-17T07:20:26.530Z,-9.11
2022-12-17T07:21:26.491Z,-9.14
2022-12-17T07:22:26.473Z,-8.96
2022-12-17T07:23:26.469Z,-8.90
2022-12-17T07:24:26.451Z,-8.94
2022-12-17T07:25:26.458Z,-8.90
2022-12-17T07:26:26.419Z,-8.93
2022-12-17T07:27:26.407Z,-8.88
2022-12-17T07:28:26.393Z,-8.93
2022-12-17T07:29:26.395Z,-9.04
2022-12-17T07:30:26.380Z,-9.14
2022-12-17T07:31:26.431Z,-9.18
2022-12-17T07:32:26.354Z,-9.17
2022-12-17T07:33:26.336Z,-9.28
2022-12-17T07:34:26.314Z,-9.21
2022-12-17T07:35:26.303Z,-9.07
2022-12-17T07:36:26.326Z,-9.02
2022-12-17T07:37:26.276Z,-8.97
2022-12-17T07:38:26.272Z,-8.94
2022-12-17T07:39:26.249Z,-8.93
2022-12-17T07:40:26.239Z,-8.88
2022-12-17T07:41:26.232Z,-8.99
2022-12-17T07:42:26.215Z,-8.94
2022-12-17T07:43:26.200Z,-8.97
2022-12-17T07:44:26.185Z,-9.02
2022-12-17T07:45:26.261Z,-9.06
2022-12-17T07:46:26.168Z,-9.11
2022-12-17T07:47:26.147Z,-9.07
2022-12-17T07:48:26.144Z,-9.00
2022-12-17T07:49:26.475Z,-8.94
2022-12-17T07:50:26.185Z,-8.94
2022-12-17T07:51:26.110Z,-9.03
2022-12-17T07:52:26.111Z,-9.11
2022-12-17T07:53:26.067Z,-9.12
2022-12-17T07:54:26.055Z,-9.15
2022-12-17T07:55:26.042Z,-9.21
2022-12-17T07:56:26.029Z,-9.22
2022-12-17T07:57:26.032Z,-9.29
2022-12-17T07:58:26.015Z,-9.21
2022-12-17T07:59:25.992Z,-9.12
2022-12-17T08:00:26.037Z,-8.99
2022-12-17T08:01:26.180Z,-8.88
2022-12-17T08:02:26.163Z,-8.88
2022-12-17T08:03:26.054Z,-8.82
2022-12-17T08:04:25.936Z,-8.82
2022-12-17T08:05:25.939Z,-8.72
2022-12-17T08:06:25.912Z,-8.67
2022-12-17T08:07:25.899Z,-8.68
2022-12-17T08:08:25.898Z,-8.64
2022-12-17T08:09:25.879Z,-8.64
2022-12-17T08:10:25.923Z,-8.67
2022-12-17T08:11:25.847Z,-8.67
2022-12-17T08:12:25.826Z,-8.62
2022-12-17T08:13:25.813Z,-8.67
2022-12-17T08:14:25.812Z,-8.68
2022-12-17T08:15:25.789Z,-8.72
2022-12-17T08:16:25.895Z,-8.79
2022-12-17T08:17:25.772Z,-8.75
2022-12-17T08:18:26.950Z,-8.76
2022-12-17T08:19:25.736Z,-8.73
2022-12-17T08:20:25.764Z,-8.70
2022-12-17T08:21:25.720Z,-8.60
2022-12-17T08:22:25.707Z,-8.54
2022-12-17T08:23:25.684Z,-8.43
2022-12-17T08:24:25.705Z,-8.36
2022-12-17T08:25:25.667Z,-8.25
2022-12-17T08:26:25.654Z,-8.29
2022-12-17T08:27:25.647Z,-8.13
2022-12-17T08:29:25.611Z,-8.03
2022-12-17T08:30:25.668Z,-8.01
2022-12-17T08:31:25.584Z,-8.01
2022-12-17T08:32:25.575Z,-8.10
2022-12-17T08:33:25.573Z,-8.19
2022-12-17T08:34:25.552Z,-8.25
2022-12-17T08:35:25.535Z,-8.29
2022-12-17T08:36:25.523Z,-8.28
2022-12-17T08:37:25.510Z,-8.21
2022-12-17T08:38:25.506Z,-8.15
2022-12-17T08:39:25.493Z,-8.03
2022-12-17T08:40:25.496Z,-7.92
2022-12-17T08:41:25.459Z,-7.89
2022-12-17T08:42:25.462Z,-7.81
2022-12-17T08:43:25.448Z,-7.50
2022-12-17T08:44:25.421Z,-6.81
2022-12-17T08:45:25.407Z,-6.07
2022-12-17T08:46:25.442Z,-5.97
2022-12-17T08:47:25.385Z,-5.53
2022-12-17T08:48:25.375Z,-4.55
2022-12-17T08:49:25.363Z,-3.75
2022-12-17T08:50:25.351Z,-3.19
2022-12-17T08:51:25.339Z,-2.81
2022-12-17T08:52:25.318Z,-2.53
2022-12-17T08:53:25.308Z,-2.08
2022-12-17T08:54:25.303Z,-1.41
2022-12-17T08:55:25.281Z,-0.70
2022-12-17T08:56:25.304Z,-0.15
2022-12-17T08:57:32.022Z,0.16
2022-12-17T08:58:26.280Z,0.69
2022-12-17T08:59:25.243Z,1.12
2022-12-17T09:00:25.230Z,1.56
2022-12-17T09:01:25.397Z,1.71
2022-12-17T09:02:25.402Z,1.45
2022-12-17T09:03:25.232Z,0.99
2022-12-17T09:04:25.184Z,0.43
2022-12-17T09:05:25.155Z,0.01
2022-12-17T09:06:25.147Z,-0.23
2022-12-17T09:07:25.127Z,-0.41
2022-12-17T09:08:25.136Z,-0.67
2022-12-17T09:09:25.111Z,-0.89
2022-12-17T09:10:25.088Z,-1.19
2022-12-17T09:11:25.073Z,-1.38
2022-12-17T09:12:25.086Z,-1.25
2022-12-17T09:13:25.056Z,-0.89
2022-12-17T09:14:25.035Z,-0.46
2022-12-17T09:15:25.022Z,-0.13
2022-12-17T09:16:25.054Z,-0.23
2022-12-17T09:17:24.999Z,-0.70
2022-12-17T09:18:24.988Z,-1.29
2022-12-17T09:19:24.982Z,-1.82
2022-12-17T09:20:29.222Z,-2.05
2022-12-17T09:21:24.957Z,-2.26
2022-12-17T09:22:24.942Z,-2.41
2022-12-17T09:23:24.925Z,-2.56
2022-12-17T09:24:24.904Z,-2.71
2022-12-17T09:25:24.889Z,-2.78
2022-12-17T09:26:24.876Z,-2.86
2022-12-17T09:27:24.861Z,-2.89
2022-12-17T09:28:24.885Z,-2.97
2022-12-17T09:29:24.852Z,-2.94
2022-12-17T09:30:24.833Z,-2.97
2022-12-17T09:31:24.905Z,-2.89
2022-12-17T09:32:24.824Z,-2.80
2022-12-17T09:33:24.800Z,-2.86
2022-12-17T09:34:24.783Z,-2.91
2022-12-17T09:35:24.771Z,-2.99
2022-12-17T09:36:24.751Z,-3.07
2022-12-17T09:37:24.749Z,-3.10
2022-12-17T09:38:24.729Z,-2.66
2022-12-17T09:39:24.709Z,-2.07
2022-12-17T09:40:24.715Z,-1.62
2022-12-17T09:41:24.684Z,-1.30
2022-12-17T09:42:24.674Z,-0.90
2022-12-17T09:43:24.657Z,-0.34
2022-12-17T09:44:24.695Z,0.10
2022-12-17T09:45:24.629Z,-0.17
2022-12-17T09:46:24.689Z,-0.28
2022-12-17T09:47:24.621Z,-0.94
2022-12-17T09:48:28.091Z,-1.76
2022-12-17T09:49:25.606Z,-2.05
2022-12-17T09:50:24.581Z,-2.26
2022-12-17T09:51:24.553Z,-2.44
2022-12-17T09:52:24.557Z,-2.71
2022-12-17T09:53:24.529Z,-2.76
2022-12-17T09:54:24.514Z,-2.76
2022-12-17T09:55:24.509Z,-2.56
2022-12-17T09:56:24.496Z,-2.26
2022-12-17T09:57:24.487Z,-1.84
2022-12-17T09:58:24.471Z,-1.58
2022-12-17T09:59:24.447Z,-1.64
2022-12-17T10:00:24.471Z,-1.97
2022-12-17T10:01:24.541Z,-2.40
2022-12-17T10:02:24.706Z,-2.74
2022-12-17T10:03:24.467Z,-3.02
2022-12-17T10:04:24.387Z,-3.22
2022-12-17T10:05:24.371Z,-3.31
2022-12-17T10:06:24.367Z,-3.37
2022-12-17T10:07:24.348Z,-3.45
2022-12-17T10:08:24.347Z,-3.55
2022-12-17T10:09:24.337Z,-3.61
2022-12-17T10:10:24.309Z,-3.67
2022-12-17T10:11:24.304Z,-3.75
2022-12-17T10:12:24.284Z,-3.72
2022-12-17T10:13:24.279Z,-3.59
2022-12-17T10:14:24.254Z,-3.46
2022-12-17T10:15:24.252Z,-3.27
2022-12-17T10:16:24.332Z,-3.06
2022-12-17T10:17:24.216Z,-2.76
2022-12-17T10:18:24.213Z,-2.40
2022-12-17T10:19:24.192Z,-2.15
2022-12-17T10:20:24.178Z,-2.30
2022-12-17T10:21:24.171Z,-2.63
2022-12-17T10:22:24.157Z,-2.71
2022-12-17T10:23:24.136Z,-2.98
2022-12-17T10:24:24.320Z,-3.09
2022-12-17T10:25:24.111Z,-3.12
2022-12-17T10:26:24.117Z,-3.06
2022-12-17T10:27:24.093Z,-2.94
2022-12-17T10:28:24.082Z,-2.65
2022-12-17T10:29:24.058Z,-2.38
2022-12-17T10:30:24.054Z,-2.08
2022-12-17T10:31:24.087Z,-1.64
2022-12-17T10:32:24.051Z,-1.56
2022-12-17T10:33:24.025Z,-1.40
2022-12-17T10:34:24.002Z,-1.47
2022-12-17T10:35:23.983Z,-1.53
2022-12-17T10:36:23.978Z,-1.61
2022-12-17T10:37:23.965Z,-1.61
2022-12-17T10:38:23.960Z,-1.44
2022-12-17T10:39:23.932Z,-1.33
2022-12-17T10:40:23.918Z,-1.05
2022-12-17T10:41:23.912Z,-0.89
2022-12-17T10:42:23.903Z,-0.93
2022-12-17T10:43:23.888Z,-1.01
2022-12-17T10:44:23.866Z,-1.02
2022-12-17T10:45:23.852Z,-0.96
2022-12-17T10:46:23.875Z,-0.80
2022-12-17T10:47:23.834Z,-0.65
2022-12-17T10:48:23.835Z,-0.52
2022-12-17T10:49:23.808Z,-0.38
2022-12-17T10:50:23.786Z,-0.31
2022-12-17T10:51:23.784Z,-0.28
2022-12-17T10:52:23.769Z,-0.21
2022-12-17T10:53:23.750Z,-0.03
2022-12-17T10:54:23.752Z,-0.02
2022-12-17T10:55:23.726Z,0.15
2022-12-17T10:56:23.723Z,0.26
2022-12-17T10:57:23.703Z,0.29
2022-12-17T10:58:23.683Z,0.18
2022-12-17T10:59:23.676Z,-0.07
2022-12-17T11:00:23.660Z,-0.17
2022-12-17T11:01:23.765Z,-0.25
2022-12-17T11:02:24.047Z,-0.32
2022-12-17T11:03:23.692Z,-0.41
2022-12-17T11:04:23.639Z,-0.70
2022-12-17T11:05:23.595Z,-1.02
2022-12-17T11:06:23.579Z,-1.14
2022-12-17T11:07:23.566Z,-1.22
2022-12-17T11:08:23.566Z,-1.22
2022-12-17T11:09:23.555Z,-1.29
2022-12-17T11:10:23.540Z,-1.25
2022-12-17T11:11:23.514Z,-1.30
2022-12-17T11:12:28.677Z,-1.38
2022-12-17T11:13:24.545Z,-1.53
2022-12-17T11:14:23.483Z,-1.65
2022-12-17T11:15:23.466Z,-1.64
2022-12-17T11:16:23.491Z,-1.48
2022-12-17T11:17:23.450Z,-1.47
2022-12-17T11:18:23.423Z,-1.46
2022-12-17T11:19:23.420Z,-1.48
2022-12-17T11:20:23.473Z,-1.47
2022-12-17T11:21:23.391Z,-1.46
2022-12-17T11:22:23.394Z,-1.41
2022-12-17T11:23:23.357Z,-1.20
2022-12-17T11:24:23.354Z,-0.99
2022-12-17T11:25:23.341Z,-1.14
2022-12-17T11:26:23.319Z,-1.15
2022-12-17T11:27:23.304Z,-0.99
2022-12-17T11:28:23.300Z,-1.01
2022-12-17T11:29:23.290Z,-1.01
2022-12-17T11:30:27.694Z,-0.89
2022-12-17T11:31:24.320Z,-0.89
2022-12-17T11:32:23.251Z,-1.05
2022-12-17T11:33:23.227Z,-1.25
2022-12-17T11:34:23.226Z,-1.38
2022-12-17T11:35:23.204Z,-1.33
2022-12-17T11:36:29.573Z,-1.35
2022-12-17T11:37:24.205Z,-1.26
2022-12-17T11:38:23.169Z,-1.09
2022-12-17T11:39:23.155Z,-0.97
2022-12-17T11:40:23.149Z,-0.90
2022-12-17T11:41:23.124Z,-0.91
2022-12-17T11:42:23.116Z,-0.97
2022-12-17T11:43:23.109Z,-0.90
2022-12-17T11:44:23.088Z,-0.78
2022-12-17T11:45:23.082Z,-0.72
2022-12-17T11:46:23.104Z,-0.64
2022-12-17T11:47:23.044Z,-0.65
2022-12-17T11:48:23.042Z,-0.72
2022-12-17T11:49:23.032Z,-0.71
2022-12-17T11:50:23.011Z,-0.67
2022-12-17T11:51:23.001Z,-0.74
2022-12-17T11:52:23.011Z,-0.90
2022-12-17T11:53:28.006Z,-0.94
2022-12-17T11:54:23.017Z,-1.02
2022-12-17T11:55:22.944Z,-1.15
2022-12-17T11:56:22.922Z,-1.22
2022-12-17T11:57:22.908Z,-1.17
2022-12-17T11:58:22.907Z,-1.05
2022-12-17T11:59:22.895Z,-1.05
2022-12-17T12:00:22.889Z,-1.12
2022-12-17T12:01:22.987Z,-1.19
2022-12-17T12:02:22.880Z,-1.23
2022-12-17T12:03:23.037Z,-1.27
2022-12-17T12:04:22.889Z,-1.19
2022-12-17T12:05:22.831Z,-1.15
2022-12-17T12:06:22.791Z,-1.09
2022-12-17T12:07:22.793Z,-1.08
2022-12-17T12:08:22.853Z,-1.02
2022-12-17T12:09:22.750Z,-0.86
2022-12-17T12:10:22.740Z,-0.82
2022-12-17T12:11:28.242Z,-0.80
2022-12-17T12:12:23.764Z,-0.78
2022-12-17T12:13:22.706Z,-0.67
2022-12-17T12:14:22.707Z,-0.61
2022-12-17T12:15:22.670Z,-0.54
2022-12-17T12:16:22.790Z,-0.62
2022-12-17T12:17:22.655Z,-0.68
2022-12-17T12:18:22.631Z,-0.62
2022-12-17T12:19:22.627Z,-0.74
2022-12-17T12:20:22.603Z,-0.74
2022-12-17T12:21:22.599Z,-0.72
2022-12-17T12:22:27.277Z,-0.74
2022-12-17T12:23:23.595Z,-0.78
2022-12-17T12:24:22.582Z,-0.74
2022-12-17T12:25:22.543Z,-0.75
2022-12-17T12:26:22.524Z,-0.80
2022-12-17T12:27:22.513Z,-0.85
2022-12-17T12:28:22.529Z,-0.74
2022-12-17T12:29:22.517Z,-0.85
2022-12-17T12:30:22.508Z,-0.90
2022-12-17T12:31:22.509Z,-0.86
2022-12-17T12:32:22.461Z,-0.89
2022-12-17T12:33:22.438Z,-0.83
2022-12-17T12:34:22.438Z,-0.90
2022-12-17T12:35:22.414Z,-0.85
2022-12-17T12:36:22.408Z,-0.89
2022-12-17T12:37:22.389Z,-0.89
2022-12-17T12:38:22.392Z,-0.91
2022-12-17T12:39:22.377Z,-0.90
2022-12-17T12:40:22.440Z,-0.96
2022-12-17T12:41:22.343Z,-0.89
2022-12-17T12:42:22.335Z,-0.94
2022-12-17T12:43:22.332Z,-1.01
2022-12-17T12:44:22.291Z,-1.01
2022-12-17T12:45:22.410Z,-1.01
2022-12-17T12:46:22.347Z,-0.99
2022-12-17T12:47:22.260Z,-0.91
2022-12-17T12:48:22.245Z,-0.89
2022-12-17T12:49:22.233Z,-0.90
2022-12-17T12:50:22.218Z,-0.77
2022-12-17T12:51:22.210Z,-0.90
2022-12-17T12:52:22.192Z,-0.89
2022-12-17T12:53:22.173Z,-0.78
2022-12-17T12:54:22.166Z,-0.82